»·PEaware :: N6290V KSNA-KBUR

N6290V :: KSNA-KBUR

FLIGHT INFORMATION

Flight Status: Arrived
Operator: Privately registered:
United States
More flights under this callsign
Pilot: Daniel S. (33171)
Aircraft: CESSNA 172 SKYHAWK
(C172)
More flights by this aircraft type
Origin: KSNA John Wayne-Orange Co
United States
Destination: KBUR Bob Hope-Burbank
United States
More flights between these airports :: More routes between these airports
Route: SLI V23 POPPER SMO125R SMO SMO311R SILEX
File this flight plan on PilotEdge
Remarks:
Altitude:
(Current/Filed)
4,000ft
Speed:
(Current/Filed)
110kts
Departed: 21-Jan-22 11:31 AM
Arrived: 21-Jan-22 12:09 PM
Distance/Time
Traveled:
40nm/0:38
Distance/Time
To Go:
Arrived

Flight Plot

Page will automatically refresh every two minutes.

Flight plan parsing failed; only flown route is shown


Map Options




Map Legend


Flown Route
Filed Route
Departure Airport
Arrival Airport
Navaid (VOR, NDB)
Fix

Horizontal Profiles

Position Reports

Time Latitude Longitude Heading Altitude Ground
Speed
21-Jan-22 11:07 33.676027 -117.871113 40 60ft 0kts
21-Jan-22 11:08 33.676027 -117.871113 40 60ft 0kts
21-Jan-22 11:09 33.676027 -117.871113 40 60ft 0kts
21-Jan-22 11:10 33.676027 -117.871113 40 60ft 0kts
21-Jan-22 11:11 33.676027 -117.871113 40 60ft 0kts
21-Jan-22 11:12 33.676027 -117.871113 40 60ft 0kts
21-Jan-22 11:15 33.676027 -117.871113 40 60ft 0kts
21-Jan-22 11:16 33.676027 -117.871113 40 60ft 0kts
21-Jan-22 11:17 33.676027 -117.871113 40 60ft 0kts
21-Jan-22 11:18 33.676027 -117.871113 40 60ft 0kts
21-Jan-22 11:19 33.676027 -117.871113 40 60ft 0kts
21-Jan-22 11:20 33.676027 -117.871113 40 60ft 0kts
21-Jan-22 11:21 33.676027 -117.871113 40 60ft 0kts
21-Jan-22 11:22 33.676027 -117.871113 40 60ft 0kts
21-Jan-22 11:23 33.676027 -117.871113 40 60ft 0kts
21-Jan-22 11:24 33.676027 -117.871113 40 60ft 0kts
21-Jan-22 11:25 33.676027 -117.871113 40 60ft 0kts
21-Jan-22 11:26 33.676643 -117.869685 31 60ft 16kts
21-Jan-22 11:27 33.681164 -117.866794 72 60ft 0kts
21-Jan-22 11:28 33.681195 -117.866683 71 60ft 0kts
21-Jan-22 11:29 33.681226 -117.866572 71 60ft 0kts
21-Jan-22 11:30 33.673585 -117.870334 217 277ft 79kts
21-Jan-22 11:31 33.662685 -117.889420 237 1446ft 72kts
21-Jan-22 11:32 33.650267 -117.910429 233 2489ft 76kts
21-Jan-22 11:33 33.648856 -117.932994 300 3426ft 81kts
21-Jan-22 11:34 33.661290 -117.957765 304 4024ft 102kts
21-Jan-22 11:35 33.678460 -117.985244 303 4091ft 108kts
21-Jan-22 11:36 33.696642 -118.014424 305 3967ft 124kts
21-Jan-22 11:37 33.716241 -118.044982 312 3953ft 113kts
21-Jan-22 11:38 33.734943 -118.075356 300 3897ft 113kts
21-Jan-22 11:39 33.750450 -118.107628 297 3888ft 112kts
21-Jan-22 11:40 33.766668 -118.138209 303 3961ft 109kts
21-Jan-22 11:41 33.781356 -118.169997 303 3994ft 109kts
21-Jan-22 11:42 33.801373 -118.197349 317 4024ft 109kts
21-Jan-22 11:43 33.819149 -118.225498 291 4056ft 107kts
21-Jan-22 11:44 33.829389 -118.259870 289 4072ft 109kts
21-Jan-22 11:45 33.846097 -118.290331 304 4092ft 108kts
21-Jan-22 11:46 33.865462 -118.320108 316 3958ft 113kts
21-Jan-22 11:47 33.891464 -118.340201 326 3917ft 115kts
21-Jan-22 11:48 33.917745 -118.362231 319 3796ft 116kts
21-Jan-22 11:49 33.942731 -118.384085 334 3839ft 110kts
21-Jan-22 11:50 33.968729 -118.403616 311 3828ft 111kts
21-Jan-22 11:51 33.987916 -118.432626 312 3835ft 111kts
21-Jan-22 11:52 34.011828 -118.455980 327 3840ft 111kts
21-Jan-22 11:53 34.040057 -118.470351 348 3830ft 111kts
21-Jan-22 11:54 34.063503 -118.493784 309 3848ft 106kts
21-Jan-22 11:55 34.085653 -118.519378 313 3819ft 110kts
21-Jan-22 11:56 34.108123 -118.544722 318 3826ft 111kts
21-Jan-22 11:57 34.132868 -118.566931 304 3799ft 113kts
21-Jan-22 11:58 34.144491 -118.600601 291 3828ft 111kts
21-Jan-22 11:59 34.157260 -118.633836 308 3911ft 110kts
21-Jan-22 12:00 34.178904 -118.622829 66 3960ft 103kts
21-Jan-22 12:01 34.192277 -118.591865 69 3386ft 108kts
21-Jan-22 12:02 34.199333 -118.556364 92 2514ft 111kts
21-Jan-22 12:03 34.201710 -118.523248 85 2864ft 106kts
21-Jan-22 12:04 34.198872 -118.488357 93 2977ft 99kts
21-Jan-22 12:05 34.197644 -118.453355 83 1920ft 106kts
21-Jan-22 12:06 34.198553 -118.424778 86 1604ft 100kts
21-Jan-22 12:07 34.198461 -118.390061 96 1207ft 102kts
21-Jan-22 12:08 34.197813 -118.364011 91 720ft 31kts
21-Jan-22 12:09 34.198558 -118.360235 1 717ft 0kts

Navigation Log

Ident Type
Flight plan parsing failed, navigation log unavailable